الصفحة الرئيسية
صور السواتل توقعات الطقس لمدة 10 يوممناخالطقس البحري أعاصير برق مطارأسئلة وأجوبة الرسائل الإخبارية نبذة
طقس : أوروبا أفريقيا أمريكا الشمالية أمريكا الجنوبية آسيا أستراليا-أوقيانوسيا أخرى
لغات جهة اتصال

سكاكا, السعودية

مطار الجوف المحلي

دائرة عرض: 29-47N, خط طول: 040-06E, ارتفاع: 689 متر


METAR: OESK 281700Z 32009KT 3000 DU SCT040 39/M01 Q1009 NOSIG
TAF: OESK 281030Z 2812/2918 27011G22KT 7000 SKC TEMPO 2812/2818 3000 BLDU PROB30 TEMPO 2812/2816 1500 BLDU BECMG 2818/2820 20010KT

زمن: 20:55 (17:55 UTC)

مراقبة الطقس الحالي

تاريخ ووقت الإصدار 55 دقيقة قبل الساعة 17:00UTC
ريح 9 عقدة من الشمال الغربي
درجة الحرارة 39°درجة مئوية
الرطوبة 8%
ضغط 1009 hPa
الرؤية: 3000 متر
غيوم متفرقة على ارتفاع 4000 قدم
غبار

تغيير وحدة

توقعات

تاريخ ووقت الإصدار 7ساعات و 25 دقيقة قبل الساعة 10:30UTC
التوقعات صالحة من28 الساعة 12 UTC إلى 29 الساعة 18 UTC
ريح 11 عقدة من الغرب تتزايد حتى 22 عقدة
الرؤية: 7000 متر
سماء صافية
مؤقت
من 28 الساعة 12 UTC إلى 28 الساعة 18 UTC
الرؤية: 3000 متر
هبوب الغبار
نظرية الاحتمالات 30% :
مؤقت
من 28 الساعة 12 UTC إلى 28 الساعة 16 UTC
الرؤية: 1500 متر
هبوب الغبار
أصبح
من 28 الساعة 18 UTC إلى 28 الساعة 20 UTC
ريح 10 عقدة من الجنوب/الجنوب الغربي
المعلومات الواردة في هذا الموقع يخضع لـإخلاء مسؤولية
طقس : أوروبا أفريقيا أمريكا الشمالية أمريكا الجنوبية آسيا أستراليا-أوقيانوسيا أخرى
صور السواتل توقعات الطقس لمدة 10 يوممناخالطقس البحري أعاصير برق مطارأسئلة وأجوبة لغات جهة اتصال الرسائل الإخبارية نبذة